Time;durP1;ratioP1;P1;durP2;ratioP2;P2;SDS_P1;SDS_P2;PMS_P1;PMS_P2;Temp;Humidity;BMP_temperature;BMP_pressure;BME280_temperature;BME280_humidity;BME280_pressure;Samples;Min_cycle;Max_cycle;Signal;HPM_P1;HPM_P2
2022/11/23 00:00:57;;;;;;;3.83;2.63;;;;;;;22.36;47.62;93672.09;4989925;28;20033;-63
2022/11/23 00:03:23;;;;;;;4.22;2.80;;;;;;;22.19;47.74;93663.63;5007604;28;20030;-62
2022/11/23 00:05:48;;;;;;;5.05;3.30;;;;;;;22.28;47.39;93685.66;5006554;28;20042;-63
2022/11/23 00:08:13;;;;;;;4.32;3.17;;;;;;;22.27;47.48;93678.78;5006975;28;20065;-63
2022/11/23 00:10:39;;;;;;;3.70;2.60;;;;;;;21.42;47.41;93563.56;5006818;28;20042;-64
2022/11/23 00:13:04;;;;;;;3.80;2.90;;;;;;;22.26;47.52;93679.31;4972177;28;20057;-63
2022/11/23 00:15:31;;;;;;;4.00;2.78;;;;;;;21.58;47.68;93576.75;5007056;28;20065;-64
2022/11/23 00:17:58;;;;;;;3.35;2.60;;;;;;;22.21;47.79;93683.63;4953648;28;20057;-63
2022/11/23 00:20:24;;;;;;;3.85;2.80;;;;;;;21.44;47.51;93562.50;4980360;28;20042;-65
2022/11/23 00:22:49;;;;;;;3.90;2.78;;;;;;;21.94;48.06;93663.28;4972712;28;20046;-65
2022/11/23 00:25:15;;;;;;;3.55;2.78;;;;;;;22.02;47.74;93653.19;4973633;28;20029;-64
2022/11/23 00:27:40;;;;;;;4.28;2.92;;;;;;;22.11;47.63;93671.75;4988762;28;20053;-66
2022/11/23 00:30:06;;;;;;;4.20;2.78;;;;;;;22.10;47.73;93670.28;4972689;28;20096;-63
2022/11/23 00:32:31;;;;;;;5.13;3.15;;;;;;;22.06;47.62;93653.59;4988830;28;20135;-61
2022/11/23 00:34:57;;;;;;;3.70;2.90;;;;;;;22.07;47.63;93665.91;4988811;28;20042;-63
2022/11/23 00:37:22;;;;;;;3.38;2.63;;;;;;;22.02;48.01;93658.63;4989357;28;20026;-62
2022/11/23 00:39:48;;;;;;;4.10;3.00;;;;;;;22.11;47.74;93671.03;4989097;28;20025;-63
2022/11/23 00:42:13;;;;;;;4.50;3.20;;;;;;;22.07;48.01;93671.34;4988930;28;20077;-64
2022/11/23 00:44:39;;;;;;;3.70;2.85;;;;;;;22.05;47.91;93678.59;4952826;28;20038;-62
2022/11/23 00:47:04;;;;;;;3.85;3.08;;;;;;;21.25;48.01;93550.38;4988724;28;20038;-65
2022/11/23 00:49:29;;;;;;;4.32;3.00;;;;;;;21.95;47.80;93664.72;4972701;28;20033;-64
2022/11/23 00:51:55;;;;;;;4.22;2.80;;;;;;;22.03;48.20;93665.53;4971934;28;20033;-64
2022/11/23 00:54:20;;;;;;;4.05;3.08;;;;;;;22.02;47.97;93664.06;4986926;28;20112;-63
2022/11/23 00:56:46;;;;;;;4.63;3.35;;;;;;;21.98;48.16;93658.22;4968676;28;20047;-62
2022/11/23 00:59:11;;;;;;;3.50;2.80;;;;;;;21.95;48.00;93653.84;4986442;28;20050;-62
2022/11/23 01:01:36;;;;;;;4.03;3.00;;;;;;;21.98;47.79;93663.66;4972553;28;20356;-65
2022/11/23 01:04:06;;;;;;;4.60;3.20;;;;;;;21.46;47.98;93591.88;4972944;28;20030;-62
2022/11/23 01:06:33;;;;;;;3.42;2.88;;;;;;;21.95;48.00;93642.25;4956147;28;20046;-63
2022/11/23 01:09:01;;;;;;;3.78;2.95;;;;;;;21.99;48.06;93653.53;4971842;28;20514;-63
2022/11/23 01:11:27;;;;;;;4.05;2.90;;;;;;;21.96;47.96;93671.63;4956193;28;20038;-63
2022/11/23 01:13:53;;;;;;;4.65;3.15;;;;;;;21.79;48.11;93639.94;5006057;28;20077;-62
2022/11/23 01:16:21;;;;;;;4.03;3.13;;;;;;;21.96;47.80;93666.19;4988401;28;20026;-62
2022/11/23 01:18:46;;;;;;;4.03;2.95;;;;;;;21.78;48.08;93647.38;4988765;28;20034;-63
2022/11/23 01:21:12;;;;;;;3.83;2.95;;;;;;;21.53;48.04;93610.22;4987783;28;20077;-63
2022/11/23 01:23:37;;;;;;;3.60;2.95;;;;;;;21.88;47.91;93642.91;4971845;28;20053;-63
2022/11/23 01:26:04;;;;;;;3.70;2.95;;;;;;;21.89;47.95;93644.38;4955412;28;20489;-64
2022/11/23 01:28:30;;;;;;;4.32;3.15;;;;;;;21.91;48.26;93643.84;4970268;28;20037;-62
2022/11/23 01:31:05;;;;;;;4.15;2.90;;;;;;;21.88;48.24;93647.63;4987329;28;20060;-62
2022/11/23 01:33:30;;;;;;;3.80;3.00;;;;;;;21.88;48.22;93653.78;5005382;28;20137;-63
2022/11/23 01:35:56;;;;;;;3.38;2.65;;;;;;;21.91;48.08;93673.75;4972259;28;20037;-62
2022/11/23 01:38:21;;;;;;;3.92;3.00;;;;;;;21.52;48.12;93627.75;4987480;28;20078;-63
2022/11/23 01:40:46;;;;;;;4.32;3.03;;;;;;;21.53;48.23;93602.06;4970221;28;20045;-64
2022/11/23 01:43:16;;;;;;;3.30;2.58;;;;;;;21.83;48.32;93629.47;4986813;28;20081;-62
2022/11/23 01:45:51;;;;;;;4.00;3.23;;;;;;;21.82;48.41;93633.47;4986324;28;20128;-64
2022/11/23 01:48:22;;;;;;;3.80;2.63;;;;;;;21.72;48.40;93637.88;4971294;28;20148;-61
2022/11/23 01:50:49;;;;;;;4.50;2.95;;;;;;;21.82;48.16;93655.19;4967170;28;20086;-64
2022/11/23 01:53:14;;;;;;;4.00;3.08;;;;;;;21.85;48.25;93671.16;4986232;28;20108;-63
2022/11/23 01:55:40;;;;;;;3.90;2.80;;;;;;;21.75;48.34;93642.25;5002987;28;20053;-66
2022/11/23 01:58:05;;;;;;;3.95;3.05;;;;;;;21.78;48.26;93641.94;4968820;28;20359;-64
2022/11/23 02:00:31;;;;;;;4.22;2.95;;;;;;;21.78;48.36;93660.97;4969281;28;20537;-62
2022/11/23 02:02:57;;;;;;;4.47;3.15;;;;;;;21.79;48.31;93667.13;4969737;28;20068;-63
2022/11/23 02:05:26;;;;;;;4.18;2.95;;;;;;;21.71;48.20;93656.19;4985539;28;20077;-65
2022/11/23 02:07:52;;;;;;;3.55;2.70;;;;;;;21.60;48.47;93628.59;4966727;28;20041;-65
2022/11/23 02:10:17;;;;;;;4.32;3.08;;;;;;;21.77;48.27;93631.63;4994902;28;20415;-62
2022/11/23 02:12:43;;;;;;;3.72;2.85;;;;;;;21.73;48.36;93625.78;4970271;28;20095;-66
2022/11/23 02:15:08;;;;;;;3.53;2.85;;;;;;;21.73;48.16;93642.06;4986504;28;20049;-62
2022/11/23 02:17:34;;;;;;;4.43;3.53;;;;;;;21.74;48.35;93632.69;4986011;28;20044;-63
2022/11/23 02:20:13;;;;;;;4.03;3.00;;;;;;;21.14;48.05;93542.50;4968701;28;20038;-65
2022/11/23 02:22:54;;;;;;;3.63;3.10;;;;;;;21.62;48.45;93604.31;4969060;28;20544;-62
2022/11/23 02:25:28;;;;;;;3.40;2.72;;;;;;;21.63;48.41;93603.06;4985515;28;20116;-64
2022/11/23 02:27:54;;;;;;;4.30;3.10;;;;;;;21.62;48.39;93617.91;4969748;28;20177;-62
2022/11/23 02:30:19;;;;;;;3.65;2.83;;;;;;;21.74;48.20;93632.69;4966364;28;20382;-65
2022/11/23 02:32:45;;;;;;;3.83;2.97;;;;;;;21.71;48.39;93625.59;4983245;28;20061;-63
2022/11/23 02:35:10;;;;;;;3.67;2.80;;;;;;;21.73;48.30;93620.34;4966997;28;20039;-62
2022/11/23 02:37:36;;;;;;;3.55;2.75;;;;;;;21.71;48.34;93612.00;4979192;28;20057;-62
2022/11/23 02:40:03;;;;;;;3.83;3.28;;;;;;;21.34;48.30;93541.78;4988933;28;20498;-63
2022/11/23 02:42:29;;;;;;;4.18;3.10;;;;;;;21.67;48.42;93589.88;4989050;28;20038;-62
2022/11/23 02:45:20;;;;;;;3.92;3.17;;;;;;;21.68;48.19;93596.75;4987803;28;20064;-65
2022/11/23 02:47:47;;;;;;;4.50;3.25;;;;;;;21.64;48.45;93588.22;4988909;28;20045;-61
2022/11/23 02:50:13;;;;;;;3.83;3.00;;;;;;;20.99;47.97;93479.97;5004147;28;20125;-62
2022/11/23 02:52:39;;;;;;;3.95;3.00;;;;;;;21.69;48.31;93592.78;4966731;28;20070;-64
2022/11/23 02:55:05;;;;;;;3.63;2.83;;;;;;;21.68;48.18;93586.63;4982393;28;20518;-61
2022/11/23 02:57:30;;;;;;;3.42;2.60;;;;;;;21.58;48.27;93572.06;4985831;28;20041;-62
2022/11/23 02:59:56;;;;;;;3.80;2.90;;;;;;;21.64;48.34;93580.81;4985425;28;20580;-62
2022/11/23 03:02:21;;;;;;;3.35;2.70;;;;;;;21.57;48.37;93553.59;4985221;28;20510;-62
2022/11/23 03:04:46;;;;;;;3.90;2.88;;;;;;;21.66;48.32;93572.13;4985406;28;20038;-62
2022/11/23 03:07:12;;;;;;;3.72;3.00;;;;;;;21.63;48.41;93571.19;5006243;28;20038;-61
2022/11/23 03:09:37;;;;;;;3.58;2.85;;;;;;;21.61;48.40;93571.00;4989494;28;20066;-61
2022/11/23 03:12:03;;;;;;;3.70;2.92;;;;;;;21.62;48.60;93550.00;4989065;28;20053;-63
2022/11/23 03:14:28;;;;;;;4.22;3.10;;;;;;;21.56;48.21;93562.97;5008218;28;20038;-62
2022/11/23 03:16:54;;;;;;;4.40;3.05;;;;;;;21.64;48.14;93563.75;4971381;28;20091;-62
2022/11/23 03:19:19;;;;;;;3.75;3.17;;;;;;;20.87;48.20;93445.50;4997268;28;20147;-63
2022/11/23 03:21:45;;;;;;;4.03;3.08;;;;;;;21.62;48.27;93560.84;4974442;28;20564;-62
2022/11/23 03:24:10;;;;;;;3.72;2.70;;;;;;;21.62;48.72;93574.44;4990484;28;20541;-62
2022/11/23 03:26:35;;;;;;;3.75;2.83;;;;;;;20.87;48.65;93466.47;4990365;28;20049;-63
2022/11/23 03:29:01;;;;;;;4.32;2.80;;;;;;;21.50;48.41;93537.94;4972653;28;20041;-63
2022/11/23 03:31:26;;;;;;;3.75;2.95;;;;;;;21.60;48.02;93583.13;4972238;28;20036;-64
2022/11/23 03:33:52;;;;;;;3.55;2.95;;;;;;;21.57;48.37;93553.59;4971937;28;20042;-62
2022/11/23 03:36:17;;;;;;;4.18;2.97;;;;;;;21.58;48.18;93538.72;5004534;28;20060;-63
2022/11/23 03:38:43;;;;;;;3.22;2.85;;;;;;;21.54;48.50;93554.66;4970762;28;20042;-62
2022/11/23 03:41:08;;;;;;;3.75;2.90;;;;;;;21.18;48.43;93502.19;4982989;28;20049;-63
2022/11/23 03:43:33;;;;;;;4.45;2.88;;;;;;;21.55;48.29;93539.78;4967523;28;20037;-64
2022/11/23 03:45:59;;;;;;;3.17;2.60;;;;;;;21.53;48.56;93532.19;4982637;28;20403;-63
2022/11/23 03:48:24;;;;;;;3.90;2.95;;;;;;;21.52;48.59;93530.00;4956131;28;20469;-65
2022/11/23 03:50:50;;;;;;;4.25;3.05;;;;;;;21.49;48.60;93531.06;4952439;28;20434;-62
2022/11/23 03:53:15;;;;;;;3.72;2.90;;;;;;;21.51;48.58;93523.13;5003938;28;20053;-62
2022/11/23 03:55:40;;;;;;;3.95;2.97;;;;;;;21.00;48.56;93438.00;4972673;28;20041;-62
2022/11/23 03:58:06;;;;;;;3.63;2.90;;;;;;;21.53;48.56;93512.44;4975749;28;20026;-63
2022/11/23 04:00:31;;;;;;;3.75;3.00;;;;;;;21.46;48.42;93494.09;5000297;28;20064;-63
2022/11/23 04:02:57;;;;;;;3.17;2.70;;;;;;;21.42;48.55;93510.72;4988551;28;20442;-63
2022/11/23 04:05:22;;;;;;;3.75;2.90;;;;;;;21.52;48.53;93519.13;4988949;28;20526;-64
2022/11/23 04:07:48;;;;;;;3.47;2.85;;;;;;;20.80;48.32;93423.72;4989498;28;20049;-64
2022/11/23 04:10:17;;;;;;;3.47;2.88;;;;;;;21.40;48.50;93523.34;4990429;28;20545;-63
2022/11/23 04:12:42;;;;;;;3.88;2.92;;;;;;;21.51;48.62;93550.28;4989537;28;20156;-64
2022/11/23 04:15:08;;;;;;;3.92;3.05;;;;;;;20.75;48.49;93427.31;4972784;28;20475;-64
2022/11/23 04:17:33;;;;;;;3.80;2.80;;;;;;;21.49;48.50;93547.34;4988645;28;20050;-61
2022/11/23 04:19:59;;;;;;;3.65;2.72;;;;;;;21.36;48.37;93522.97;4988572;28;20076;-62
2022/11/23 04:22:24;;;;;;;3.65;2.85;;;;;;;21.49;48.66;93558.22;4989023;28;20034;-62
2022/11/23 04:24:50;;;;;;;4.35;3.08;;;;;;;21.36;48.53;93522.97;4955485;28;20041;-64
2022/11/23 04:27:15;;;;;;;3.53;2.80;;;;;;;21.33;48.53;93518.63;4991871;28;20477;-63
2022/11/23 04:29:40;;;;;;;3.50;2.70;;;;;;;21.46;48.38;93537.56;4989170;28;20038;-62
2022/11/23 04:32:06;;;;;;;3.42;2.65;;;;;;;21.47;48.49;93539.00;5006311;28;20065;-62
2022/11/23 04:34:31;;;;;;;3.45;2.70;;;;;;;21.48;48.59;93545.91;4972800;28;20030;-64
2022/11/23 04:36:57;;;;;;;3.45;2.80;;;;;;;21.47;48.64;93523.44;4972752;28;20430;-64
2022/11/23 04:39:22;;;;;;;2.90;2.55;;;;;;;21.56;48.28;93530.38;4988896;28;20085;-63
2022/11/23 04:41:47;;;;;;;3.40;2.80;;;;;;;21.67;47.55;93547.16;4988527;28;20103;-64
2022/11/23 04:44:13;;;;;;;3.55;2.65;;;;;;;21.85;47.53;93557.03;4988786;28;20045;-62
2022/11/23 04:46:38;;;;;;;6.25;3.15;;;;;;;22.09;47.26;93562.06;4972431;28;20045;-62
2022/11/23 04:49:04;;;;;;;3.38;2.60;;;;;;;22.18;47.12;93567.75;4970110;28;20125;-62
2022/11/23 04:51:29;;;;;;;3.20;2.47;;;;;;;22.28;46.94;93571.44;4946658;28;20042;-63
2022/11/23 04:53:55;;;;;;;3.72;2.83;;;;;;;22.30;46.92;93566.22;4988896;28;20050;-62
2022/11/23 04:56:20;;;;;;;3.70;2.72;;;;;;;22.38;46.80;93564.25;4988359;28;20057;-63
2022/11/23 04:58:45;;;;;;;2.95;2.50;;;;;;;22.48;46.29;93543.41;4975298;28;20054;-60
2022/11/23 05:01:11;;;;;;;3.78;2.70;;;;;;;22.57;46.17;93570.13;4989219;28;20072;-61
2022/11/23 05:03:36;;;;;;;3.30;2.47;;;;;;;22.72;45.58;93581.06;4987979;28;20045;-62
2022/11/23 05:06:02;;;;;;;3.03;2.28;;;;;;;22.89;45.74;93593.66;4986755;28;20050;-63
2022/11/23 05:08:28;;;;;;;3.60;2.70;;;;;;;23.02;45.09;93587.38;4987434;28;20116;-63
2022/11/23 05:10:54;;;;;;;3.28;2.60;;;;;;;22.60;45.31;93503.75;4970244;28;20130;-61
2022/11/23 05:13:19;;;;;;;3.40;2.78;;;;;;;23.27;44.91;93580.88;4971393;28;20041;-63
2022/11/23 05:15:45;;;;;;;3.50;2.60;;;;;;;23.18;45.30;93578.66;4970890;28;20510;-65
2022/11/23 05:18:10;;;;;;;2.80;2.47;;;;;;;23.16;45.06;93594.84;4971174;28;20042;-62
2022/11/23 05:20:36;;;;;;;2.90;2.40;;;;;;;22.74;45.02;93524.13;4998967;28;20045;-63
2022/11/23 05:23:01;;;;;;;3.25;2.55;;;;;;;23.19;45.20;93591.03;4972104;28;20447;-60
2022/11/23 05:25:27;;;;;;;2.55;2.00;;;;;;;22.59;44.68;93458.78;4942428;28;20152;-65
2022/11/23 05:27:52;;;;;;;3.30;2.58;;;;;;;23.58;44.00;93560.56;4968043;28;20550;-64
2022/11/23 05:30:18;;;;;;;2.92;2.30;;;;;;;23.67;43.83;93552.59;4967913;28;20057;-64
2022/11/23 05:32:43;;;;;;;3.92;2.80;;;;;;;22.62;43.55;93400.56;4968251;28;20053;-63
2022/11/23 05:35:09;;;;;;;3.03;2.45;;;;;;;23.78;43.46;93546.03;4998273;28;20104;-63
2022/11/23 05:37:34;;;;;;;3.55;2.60;;;;;;;23.82;43.56;93557.31;4985915;28;20398;-65
2022/11/23 05:40:00;;;;;;;3.17;2.53;;;;;;;23.72;43.71;93553.69;5004814;28;20054;-61
2022/11/23 05:42:26;;;;;;;2.90;2.33;;;;;;;23.77;43.41;93560.97;4971953;28;20054;-62
2022/11/23 05:44:51;;;;;;;3.25;2.45;;;;;;;23.92;43.38;93548.75;4987540;28;20541;-62
2022/11/23 05:47:16;;;;;;;2.83;2.35;;;;;;;24.04;42.80;93558.00;4997130;28;20054;-63
2022/11/23 05:49:42;;;;;;;3.38;2.20;;;;;;;23.92;43.56;93561.66;4984192;28;20140;-60
2022/11/23 05:52:07;;;;;;;3.40;2.50;;;;;;;23.86;43.67;93559.13;4980337;28;20029;-62
2022/11/23 05:54:33;;;;;;;2.80;2.22;;;;;;;23.88;43.39;93572.94;4987762;28;20061;-62
2022/11/23 05:56:58;;;;;;;2.60;2.08;;;;;;;23.85;43.87;93567.13;4988532;28;20045;-64
2022/11/23 05:59:24;;;;;;;3.17;2.38;;;;;;;22.99;43.27;93425.81;5004272;28;20510;-63
2022/11/23 06:01:51;;;;;;;3.92;2.40;;;;;;;23.95;43.29;93555.84;4986577;28;20046;-62
2022/11/23 06:04:16;;;;;;;2.67;2.33;;;;;;;24.16;43.22;93553.63;5004341;28;20415;-62
2022/11/23 06:06:41;;;;;;;2.88;2.13;;;;;;;24.16;43.44;93553.63;4969816;28;20507;-63
2022/11/23 06:09:07;;;;;;;2.97;2.30;;;;;;;24.21;42.90;93528.13;4985421;28;20570;-62
2022/11/23 06:11:34;;;;;;;3.63;2.40;;;;;;;24.50;43.05;93570.28;4986263;28;20068;-62
2022/11/23 06:13:59;;;;;;;4.05;2.10;;;;;;;24.39;43.39;93582.34;4987316;28;20049;-63
2022/11/23 06:16:25;;;;;;;3.28;2.30;;;;;;;24.29;43.36;93569.78;5004576;28;20033;-63
2022/11/23 06:18:50;;;;;;;3.75;2.50;;;;;;;24.17;43.80;93557.81;5004606;28;20030;-62
2022/11/23 06:21:15;;;;;;;3.15;2.58;;;;;;;24.26;44.31;93583.78;4985745;28;20127;-64
2022/11/23 06:23:41;;;;;;;3.53;2.22;;;;;;;24.01;44.38;93531.81;5003140;28;20526;-65
2022/11/23 06:26:06;;;;;;;3.03;2.40;;;;;;;24.38;45.33;93607.44;4986820;28;20499;-62
2022/11/23 06:28:34;;;;;;;2.78;2.03;;;;;;;24.47;45.95;93593.94;4998293;28;20029;-66
2022/11/23 06:31:04;;;;;;;3.20;2.15;;;;;;;23.51;45.90;93425.03;5005100;28;20060;-62
2022/11/23 06:33:29;;;;;;;3.08;2.05;;;;;;;24.52;46.29;93589.56;4968334;28;20046;-62
2022/11/23 06:35:55;;;;;;;3.10;2.22;;;;;;;24.37;46.44;93575.97;4994536;28;20370;-64
2022/11/23 06:38:21;;;;;;;3.05;2.17;;;;;;;24.45;45.31;93579.38;4961447;28;20133;-64
2022/11/23 06:40:46;;;;;;;4.70;2.33;;;;;;;24.50;46.32;93597.59;4971838;28;20130;-62
2022/11/23 06:43:12;;;;;;;2.97;2.28;;;;;;;24.48;46.97;93597.38;4977839;28;20454;-64
2022/11/23 06:45:37;;;;;;;3.92;2.17;;;;;;;24.38;45.67;93561.06;5005890;28;20526;-62
2022/11/23 06:48:03;;;;;;;2.88;2.10;;;;;;;23.90;45.66;93510.41;4987185;28;20066;-62
2022/11/23 06:50:28;;;;;;;3.15;2.20;;;;;;;24.69;46.02;93582.22;5006389;28;20050;-60
2022/11/23 06:52:57;;;;;;;5.82;2.28;;;;;;;24.62;46.63;93582.22;4990881;28;20057;-62
2022/11/23 06:55:23;;;;;;;3.78;2.40;;;;;;;24.13;45.40;93499.44;5008750;28;20113;-64
2022/11/23 06:57:48;;;;;;;3.35;2.25;;;;;;;24.57;45.63;93574.97;4975362;28;20121;-63
2022/11/23 07:00:14;;;;;;;4.28;2.30;;;;;;;24.65;45.35;93587.34;4995664;28;20050;-63
2022/11/23 07:02:40;;;;;;;2.85;2.10;;;;;;;24.54;45.20;93578.81;4992725;28;20054;-64
2022/11/23 07:05:05;;;;;;;3.03;2.10;;;;;;;24.26;44.71;93480.84;4978840;28;20053;-61
2022/11/23 07:07:31;;;;;;;3.03;2.00;;;;;;;25.11;44.06;93594.81;4990175;28;20574;-64
2022/11/23 07:09:57;;;;;;;3.05;1.90;;;;;;;25.15;43.61;93573.28;5009291;28;20462;-65
2022/11/23 07:12:22;;;;;;;3.15;2.10;;;;;;;24.89;43.54;93587.41;5006818;28;20640;-63
2022/11/23 07:14:47;;;;;;;4.47;2.30;;;;;;;25.18;43.41;93588.56;4970193;28;20434;-64
2022/11/23 07:17:13;;;;;;;4.07;2.50;;;;;;;24.22;44.47;93502.31;4985690;28;20042;-64
2022/11/23 07:19:38;;;;;;;3.42;2.30;;;;;;;24.92;43.90;93586.31;4990559;28;20038;-63
2022/11/23 07:22:04;;;;;;;3.70;2.35;;;;;;;24.28;43.56;93494.66;4990259;28;20025;-62
2022/11/23 07:24:29;;;;;;;5.65;2.25;;;;;;;24.93;43.54;93601.44;4979295;28;20050;-62
2022/11/23 07:26:54;;;;;;;3.25;2.20;;;;;;;24.82;43.76;93618.19;4995153;28;20053;-61
2022/11/23 07:29:20;;;;;;;3.47;2.33;;;;;;;24.88;43.69;93587.97;4992221;28;20042;-63
2022/11/23 07:31:45;;;;;;;3.33;2.10;;;;;;;24.57;43.87;93585.91;4975564;28;20069;-63
2022/11/23 07:34:11;;;;;;;3.38;2.53;;;;;;;25.26;42.66;93600.19;4975135;28;20045;-62
2022/11/23 07:36:37;;;;;;;3.00;2.40;;;;;;;25.32;42.39;93587.03;4980357;28;20054;-64
2022/11/23 07:39:02;;;;;;;4.05;2.22;;;;;;;25.35;42.39;93602.31;5002054;28;20541;-64
2022/11/23 07:41:27;;;;;;;4.70;2.30;;;;;;;25.45;42.50;93600.44;4973336;28;20058;-65
2022/11/23 07:43:53;;;;;;;4.15;2.40;;;;;;;25.62;42.34;93595.00;4989094;28;20486;-64
2022/11/23 07:46:19;;;;;;;4.18;2.33;;;;;;;25.23;42.73;93595.84;4976365;28;20116;-63
2022/11/23 07:48:44;;;;;;;3.17;2.40;;;;;;;25.46;42.71;93602.59;4959401;28;20041;-64
2022/11/23 07:51:09;;;;;;;3.95;2.40;;;;;;;25.40;42.78;93604.09;4990779;28;20054;-65
2022/11/23 07:53:35;;;;;;;3.65;2.30;;;;;;;25.32;42.79;93578.84;4989517;28;20062;-63
2022/11/23 07:56:00;;;;;;;3.95;2.13;;;;;;;25.29;42.44;93582.69;4972509;28;20061;-61
2022/11/23 07:58:26;;;;;;;3.67;2.40;;;;;;;25.34;42.60;93584.47;4969993;28;20025;-61
2022/11/23 08:00:52;;;;;;;4.47;2.50;;;;;;;25.30;42.76;93595.06;4975039;28;20443;-62
2022/11/23 08:03:17;;;;;;;4.30;2.58;;;;;;;25.27;42.79;93587.97;4990813;28;20049;-61
2022/11/23 08:05:43;;;;;;;3.55;2.13;;;;;;;25.20;42.79;93574.34;4990200;28;20042;-66
2022/11/23 08:08:08;;;;;;;3.95;2.55;;;;;;;24.47;43.07;93489.53;4987336;28;20050;-66
2022/11/23 08:10:34;;;;;;;3.72;2.38;;;;;;;24.92;43.70;93586.31;4972162;28;20046;-66
2022/11/23 08:13:00;;;;;;;3.95;2.80;;;;;;;24.89;43.46;93590.16;4972304;28;20494;-64
2022/11/23 08:15:27;;;;;;;3.13;1.98;;;;;;;24.85;43.50;93578.16;4970181;28;20061;-63
2022/11/23 08:18:00;;;;;;;3.53;2.47;;;;;;;24.83;43.58;93581.44;4987734;28;20049;-64
2022/11/23 08:20:26;;;;;;;3.95;2.45;;;;;;;24.76;43.61;93558.91;4990273;28;20038;-69
2022/11/23 08:22:54;;;;;;;2.90;2.15;;;;;;;24.80;43.22;93570.16;4976745;28;20129;-62
2022/11/23 08:25:23;;;;;;;7.32;6.47;;;;;;;24.07;40.45;93584.19;4967358;28;20038;-64
2022/11/23 08:28:00;;;;;;;6.27;4.30;;;;;;;24.05;43.95;93577.81;4972159;28;20049;-64
2022/11/23 08:30:25;;;;;;;6.72;3.90;;;;;;;23.88;44.16;93496.59;4955700;28;20281;-64
2022/11/23 08:32:51;;;;;;;4.32;2.78;;;;;;;24.49;44.50;93574.28;4952958;28;20804;-65
2022/11/23 08:35:16;;;;;;;5.57;2.95;;;;;;;24.52;44.92;93573.19;4989612;28;20057;-67
2022/11/23 08:37:42;;;;;;;3.40;2.33;;;;;;;24.36;45.58;93555.41;4986735;28;20058;-62
2022/11/23 08:40:08;;;;;;;3.97;2.50;;;;;;;24.48;45.66;93567.38;4993645;28;20034;-62
2022/11/23 08:42:33;;;;;;;3.25;2.20;;;;;;;24.33;45.76;93570.13;4985827;28;20046;-67
2022/11/23 08:45:01;;;;;;;4.90;2.28;;;;;;;24.37;45.80;93578.69;4986915;28;20603;-63
2022/11/23 08:47:27;;;;;;;3.13;2.10;;;;;;;24.33;45.95;93567.41;4985936;28;20041;-62
2022/11/23 08:49:52;;;;;;;3.70;2.40;;;;;;;24.32;46.12;93592.50;4984362;28;20050;-65
2022/11/23 08:52:18;;;;;;;4.80;2.80;;;;;;;24.13;45.94;93565.63;4971481;28;20034;-62
2022/11/23 08:54:43;;;;;;;3.15;2.70;;;;;;;24.22;46.68;93594.34;4967509;28;20410;-62
2022/11/23 08:57:09;;;;;;;4.20;2.38;;;;;;;24.20;46.04;93597.63;4989727;28;20065;-64
2022/11/23 08:59:34;;;;;;;4.50;2.43;;;;;;;24.20;45.89;93592.16;4946041;28;1200245;-66
2022/11/23 09:01:59;;;;;;;6.03;2.45;;;;;;;24.19;45.84;93574.34;4976930;28;20087;-63
2022/11/23 09:04:26;;;;;;;3.58;2.30;;;;;;;23.77;45.93;93528.97;4954824;28;20033;-63
2022/11/23 09:06:52;;;;;;;3.83;2.47;;;;;;;24.21;45.99;93588.16;4982008;28;20042;-65
2022/11/23 09:09:17;;;;;;;3.15;2.25;;;;;;;24.15;45.82;93584.16;4961812;28;20052;-62
2022/11/23 09:11:43;;;;;;;3.85;2.45;;;;;;;23.55;45.78;93490.81;4972901;28;20485;-63
2022/11/23 09:14:08;;;;;;;3.38;2.50;;;;;;;24.17;45.69;93579.63;4983054;28;20075;-65
2022/11/23 09:16:34;;;;;;;3.15;2.38;;;;;;;24.06;46.32;93565.63;4968690;28;20030;-62
2022/11/23 09:18:59;;;;;;;3.75;2.28;;;;;;;24.13;45.73;93560.16;4973151;28;20030;-65
2022/11/23 09:21:29;;;;;;;3.58;2.67;;;;;;;24.03;46.15;93540.19;4969205;28;20057;-68
2022/11/23 09:23:55;;;;;;;3.88;2.58;;;;;;;24.12;45.82;93564.16;4980261;28;20046;-66
2022/11/23 09:26:21;;;;;;;4.28;2.35;;;;;;;24.01;46.11;93556.38;4980912;28;20077;-65
2022/11/23 09:28:46;;;;;;;3.40;2.60;;;;;;;24.09;45.99;93565.25;4976937;28;20567;-62
2022/11/23 09:31:12;;;;;;;3.80;2.38;;;;;;;24.02;46.41;93559.81;4957043;28;20694;-63
2022/11/23 09:33:37;;;;;;;3.92;2.42;;;;;;;23.98;46.56;93556.75;4970467;28;20526;-67
2022/11/23 09:36:03;;;;;;;3.40;2.20;;;;;;;24.03;46.17;93564.72;4982268;28;20522;-66
2022/11/23 09:38:28;;;;;;;3.38;2.20;;;;;;;24.02;46.02;93555.09;4994987;28;20553;-61
2022/11/23 09:41:26;;;;;;;4.15;2.53;;;;;;;23.95;46.42;93555.84;4977936;28;20042;-62
2022/11/23 09:44:16;;;;;;;3.15;2.35;;;;;;;24.00;45.85;93554.91;4977980;28;20039;-61
2022/11/23 09:46:50;;;;;;;3.80;2.38;;;;;;;23.96;46.05;93540.94;4966107;28;20048;-63
2022/11/23 09:49:20;;;;;;;3.08;2.33;;;;;;;23.99;46.17;93545.28;4986176;28;20478;-61
2022/11/23 09:51:46;;;;;;;4.63;2.78;;;;;;;24.00;46.12;93546.00;4955152;28;20065;-62
2022/11/23 09:54:18;;;;;;;3.65;2.45;;;;;;;24.08;45.86;93557.63;4979118;28;20304;-61
2022/11/23 09:56:45;;;;;;;4.35;2.42;;;;;;;23.38;45.67;93455.22;4999281;28;20058;-61
2022/11/23 09:59:38;;;;;;;4.32;2.30;;;;;;;24.14;45.96;93549.97;4969550;28;20140;-63
2022/11/23 10:02:04;;;;;;;3.85;2.45;;;;;;;23.69;45.78;93468.28;4963818;28;20042;-63
2022/11/23 10:04:33;;;;;;;3.67;2.15;;;;;;;24.07;45.85;93532.34;4990474;28;20034;-62
2022/11/23 10:07:11;;;;;;;3.28;2.25;;;;;;;24.19;46.07;93541.59;4971804;28;20128;-63
2022/11/23 10:09:47;;;;;;;3.28;2.22;;;;;;;24.23;45.71;93541.97;4959131;28;20069;-64
2022/11/23 10:12:27;;;;;;;3.20;2.13;;;;;;;24.33;45.66;93551.03;4986657;28;20030;-64
2022/11/23 10:14:56;;;;;;;3.00;1.98;;;;;;;24.37;45.24;93543.22;5004403;28;20564;-63
2022/11/23 10:17:47;;;;;;;2.83;2.20;;;;;;;24.36;45.97;93539.03;4983994;28;20050;-63
2022/11/23 10:20:39;;;;;;;2.85;2.08;;;;;;;24.29;45.89;93523.41;4986071;28;20046;-62
2022/11/23 10:23:57;;;;;;;3.28;2.20;;;;;;;24.37;45.73;93537.75;4989717;28;20053;-66
2022/11/23 10:26:27;;;;;;;3.13;2.13;;;;;;;24.42;45.67;93547.75;4986635;28;20120;-65
2022/11/23 10:28:52;;;;;;;4.57;2.30;;;;;;;24.39;45.66;93535.19;4959873;28;20149;-64
2022/11/23 10:31:22;;;;;;;2.75;1.88;;;;;;;23.79;45.73;93438.47;4955072;28;20482;-65
2022/11/23 10:33:54;;;;;;;2.88;2.10;;;;;;;23.89;45.77;93459.88;4966463;28;20104;-63
2022/11/23 10:36:20;;;;;;;2.92;2.13;;;;;;;24.41;45.88;93536.09;5000643;28;20049;-63
2022/11/23 10:38:56;;;;;;;3.67;2.25;;;;;;;24.52;45.58;93529.53;4962078;28;20497;-64
2022/11/23 10:41:22;;;;;;;5.85;2.78;;;;;;;24.73;45.33;93516.31;4987745;28;20070;-64
2022/11/23 10:43:47;;;;;;;3.35;2.38;;;;;;;24.80;45.05;93518.28;5000729;28;20068;-66
2022/11/23 10:46:36;;;;;;;3.53;2.17;;;;;;;24.82;44.83;93514.44;4999076;28;20031;-63
2022/11/23 10:49:17;;;;;;;3.92;2.15;;;;;;;24.85;44.58;93524.25;4989044;28;20478;-62
2022/11/23 10:51:50;;;;;;;3.90;2.30;;;;;;;24.99;44.60;93511.84;4985790;28;20143;-64
2022/11/23 10:54:46;;;;;;;3.95;2.13;;;;;;;24.93;44.51;93508.56;4979193;28;20042;-62
2022/11/23 10:57:26;;;;;;;2.35;2.00;;;;;;;25.05;44.56;93520.53;4983630;28;20050;-62
2022/11/23 11:00:12;;;;;;;4.00;2.33;;;;;;;25.08;44.12;93513.97;4998660;28;20054;-65
2022/11/23 11:02:43;;;;;;;3.22;2.40;;;;;;;25.13;44.17;93515.75;4973043;28;20054;-63
2022/11/23 11:05:25;;;;;;;3.17;2.25;;;;;;;25.15;44.12;93518.63;4952325;28;20046;-63
2022/11/23 11:07:51;;;;;;;3.33;2.00;;;;;;;25.22;44.05;93526.06;4985993;28;20073;-64
2022/11/23 11:10:31;;;;;;;3.58;2.20;;;;;;;25.26;43.76;93490.91;4985566;28;20510;-63
2022/11/23 11:12:57;;;;;;;3.60;2.10;;;;;;;25.29;43.85;93481.56;5001769;28;20045;-63
2022/11/23 11:15:22;;;;;;;3.00;2.05;;;;;;;24.80;43.64;93411.78;4997185;28;20600;-65
2022/11/23 11:17:55;;;;;;;3.13;2.20;;;;;;;24.46;43.54;93357.06;4977111;28;20590;-64
2022/11/23 11:20:27;;;;;;;3.40;2.15;;;;;;;25.59;43.37;93500.44;4972136;28;20124;-63
2022/11/23 11:23:03;;;;;;;2.97;2.17;;;;;;;25.27;43.31;93473.19;4984112;28;20655;-65
2022/11/23 11:25:29;;;;;;;3.10;2.10;;;;;;;25.68;43.09;93513.53;4973119;28;20038;-62
2022/11/23 11:27:55;;;;;;;2.65;2.30;;;;;;;25.70;43.05;93510.97;4996347;28;20210;-64
2022/11/23 11:30:24;;;;;;;3.03;2.33;;;;;;;25.74;42.99;93511.28;4967911;28;20054;-66
2022/11/23 11:33:16;;;;;;;3.42;2.22;;;;;;;25.78;42.69;93506.16;4976168;28;20148;-66
2022/11/23 11:35:42;;;;;;;3.22;2.30;;;;;;;25.92;42.39;93495.06;4985635;28;20046;-65